This is the latest recevied weather packets stored in our database for station/object K3BAY-1. If no packets are shown the sender has not sent any weather packets the latest 10 day(s).
| Time | Temp. | Humidity | Pressure | Rain* | Wind** | Luminosity | Snow |
|---|---|---|---|---|---|---|---|
| 1777927011 | 22.78° C | 40% | 1012.9 hPa | 0 mm | - | 468 W/m² | - |
| 1777925495 | 23.89° C | 38% | 1013.6 hPa | 0 mm | - | 513 W/m² | - |
| 1777925192 | 23.89° C | 37% | 1013.6 hPa | 0 mm | - | 532 W/m² | - |
| 1777924281 | 23.89° C | 37% | 1013.6 hPa | 0 mm | - | 583 W/m² | - |
| 1777923674 | 23.33° C | 37% | 1013.6 hPa | 0 mm | - | 576 W/m² | - |
| 1777923069 | 23.33° C | 37% | 1013.9 hPa | 0 mm | - | 612 W/m² | - |
| 1777921858 | 23.89° C | 36% | 1013.9 hPa | 0 mm | - | 649 W/m² | - |
| 1777919733 | 22.78° C | 37% | 1014.2 hPa | 0 mm | - | 661 W/m² | - |
| 1777919431 | 23.33° C | 36% | 1014.2 hPa | 0 mm | - | 654 W/m² | - |
| 1777916102 | 23.33° C | 38% | 1014.6 hPa | 0 mm | - | 753 W/m² | - |
| 1777915800 | 24.44° C | 35% | 1014.6 hPa | 0 mm | - | 754 W/m² | - |
| 1777915192 | 25.56° C | 33% | 1014.6 hPa | 0 mm | - | 769 W/m² | - |
| 1777913979 | 24.44° C | 33% | 1014.6 hPa | 0 mm | - | 746 W/m² | - |
| 1777912765 | 24.44° C | 35% | 1014.2 hPa | 0 mm | - | 88 W/m² | - |
| 1777912461 | 24.44° C | 34% | 1014.6 hPa | 0 mm | - | 69 W/m² | - |
| 1777912158 | 23.33° C | 33% | 1014.6 hPa | 0 mm | - | 715 W/m² | - |
| 1777911551 | 23.33° C | 34% | 1014.2 hPa | 0 mm | - | 717 W/m² | - |
| 1777910642 | 23.33° C | 32% | 1014.2 hPa | 0 mm | - | 55 W/m² | - |
| 1777909127 | 22.78° C | 33% | 1014.6 hPa | 0 mm | - | 52 W/m² | - |
| 1777908825 | 22.22° C | 37% | 1014.6 hPa | 0 mm | - | 51 W/m² | - |
| 1777908521 | 21.67° C | 37% | 1014.6 hPa | 0 mm | - | 51 W/m² | - |
| 1777908218 | 20.56° C | 44% | 1014.2 hPa | 0 mm | - | 50 W/m² | - |
| 1777907914 | 20.56° C | 43% | 1014.2 hPa | 0 mm | - | 51 W/m² | - |
| 1777907610 | 21.11° C | 45% | 1014.6 hPa | 0 mm | - | 50 W/m² | - |
| 1777907306 | 20° C | 47% | 1014.2 hPa | 0 mm | - | 49 W/m² | - |
* Rain latest hour (hover to see other rain measurements)
** Current wind speed in m/s (hover to see current wind gust speed)